Time;durP1;ratioP1;P1;durP2;ratioP2;P2;SDS_P1;SDS_P2;PMS_P1;PMS_P2;Temp;Humidity;BMP_temperature;BMP_pressure;BME280_temperature;BME280_humidity;BME280_pressure;Samples;Min_cycle;Max_cycle;Signal;HPM_P1;HPM_P2
2022/03/11 00:01:35;;;;;;;10.82;4.60;;;;;;;5.87;46.22;101724.56;5052580;28;20032;-83
2022/03/11 00:04:01;;;;;;;14.75;5.63;;;;;;;5.89;46.35;101727.13;5052926;28;20036;-83
2022/03/11 00:06:26;;;;;;;12.77;5.25;;;;;;;5.86;47.46;101725.38;5051788;28;20025;-83
2022/03/11 00:08:51;;;;;;;11.40;5.18;;;;;;;5.82;46.21;101722.72;5052804;28;20033;-83
2022/03/11 00:11:17;;;;;;;10.70;4.95;;;;;;;5.78;47.00;101720.91;5052610;28;20029;-82
2022/03/11 00:13:45;;;;;;;11.32;4.88;;;;;;;5.76;47.46;101717.44;5052039;28;20029;-83
2022/03/11 00:16:11;;;;;;;11.95;5.18;;;;;;;5.74;46.62;101714.00;5052708;28;20082;-83
2022/03/11 00:18:36;;;;;;;12.83;5.70;;;;;;;5.71;47.70;101710.53;5052645;28;20025;-83
2022/03/11 00:21:01;;;;;;;12.85;5.22;;;;;;;5.75;47.27;101715.69;5051978;28;20049;-84
2022/03/11 00:23:29;;;;;;;11.45;5.20;;;;;;;5.69;47.27;101709.63;5052550;28;20465;-83
2022/03/11 00:25:54;;;;;;;11.43;4.80;;;;;;;5.71;46.64;101709.63;5052310;28;20028;-83
2022/03/11 00:28:20;;;;;;;12.23;5.30;;;;;;;5.63;47.37;101704.34;5051519;28;20036;-83
2022/03/11 00:30:45;;;;;;;13.38;5.55;;;;;;;5.63;47.67;101711.19;5052914;28;20025;-83
2022/03/11 00:33:10;;;;;;;12.93;5.50;;;;;;;5.62;47.36;101709.47;5055193;28;20497;-83
2022/03/11 00:35:36;;;;;;;10.93;4.90;;;;;;;5.61;47.10;101702.56;5054950;28;20122;-83
2022/03/11 00:38:02;;;;;;;14.80;5.78;;;;;;;5.64;46.88;101713.78;5056609;28;20027;-83
2022/03/11 00:40:27;;;;;;;14.18;5.82;;;;;;;5.56;47.85;101699.91;5056426;28;20021;-83
2022/03/11 00:42:53;;;;;;;13.65;5.80;;;;;;;5.57;47.17;101707.66;5055005;28;20091;-83
2022/03/11 00:45:18;;;;;;;13.55;5.40;;;;;;;5.56;47.25;101703.38;5056213;28;20342;-84
2022/03/11 00:47:43;;;;;;;14.02;5.55;;;;;;;5.51;48.13;101693.81;5056068;28;20029;-83
2022/03/11 00:50:09;;;;;;;12.40;5.43;;;;;;;5.52;47.85;101701.56;5056816;28;20021;-83
2022/03/11 00:52:34;;;;;;;13.32;5.90;;;;;;;5.55;47.85;101700.75;5056178;28;20544;-83
2022/03/11 00:55:02;;;;;;;12.38;5.35;;;;;;;5.52;48.03;101696.41;5055703;28;20039;-83
2022/03/11 00:57:28;;;;;;;13.95;5.50;;;;;;;5.52;46.55;101700.69;5056108;28;20037;-83
2022/03/11 00:59:53;;;;;;;12.65;5.30;;;;;;;5.51;47.89;101694.69;5056359;28;20033;-83
2022/03/11 01:02:18;;;;;;;13.30;5.72;;;;;;;5.50;47.94;101689.50;5055001;28;20055;-82
2022/03/11 01:04:49;;;;;;;14.70;6.00;;;;;;;5.51;47.72;101698.97;5056075;28;20035;-83
2022/03/11 01:07:15;;;;;;;15.85;6.22;;;;;;;5.48;48.11;101694.59;5056143;28;20423;-83
2022/03/11 01:09:40;;;;;;;15.95;6.90;;;;;;;5.49;48.07;101680.03;5055074;28;20024;-83
2022/03/11 01:12:05;;;;;;;16.38;7.10;;;;;;;5.49;47.73;101680.91;5055913;28;20033;-83
2022/03/11 01:14:40;;;;;;;16.67;7.55;;;;;;;5.50;47.73;101674.91;5055655;28;20489;-83
2022/03/11 01:17:05;;;;;;;16.77;7.18;;;;;;;5.49;47.15;101667.16;5055404;28;20029;-83
2022/03/11 01:19:30;;;;;;;17.48;7.90;;;;;;;5.48;47.90;101673.16;5055973;28;20027;-83
2022/03/11 01:21:57;;;;;;;17.52;7.75;;;;;;;5.47;47.62;101666.28;5056354;28;20428;-83
2022/03/11 01:24:22;;;;;;;17.00;7.03;;;;;;;5.48;47.33;101665.44;5054631;28;20052;-82
2022/03/11 01:26:47;;;;;;;15.50;6.73;;;;;;;5.44;47.74;101667.09;5055938;28;20064;-83
2022/03/11 01:29:12;;;;;;;14.18;6.15;;;;;;;5.41;47.83;101655.00;5056380;28;20028;-83
2022/03/11 01:31:38;;;;;;;15.18;6.53;;;;;;;5.37;47.90;101655.81;5054903;28;20358;-83
2022/03/11 01:34:03;;;;;;;15.25;6.40;;;;;;;5.36;47.57;101650.59;5055332;28;20049;-83
2022/03/11 01:36:28;;;;;;;17.17;7.05;;;;;;;5.37;48.02;101648.06;5054608;28;20033;-83
2022/03/11 01:38:54;;;;;;;16.33;6.85;;;;;;;5.30;48.22;101643.63;5054860;28;20369;-83
2022/03/11 01:41:20;;;;;;;16.90;7.10;;;;;;;5.34;47.67;101640.28;5055415;28;20389;-83
2022/03/11 01:43:54;;;;;;;17.30;7.30;;;;;;;5.31;48.19;101640.22;5055527;28;20027;-83
2022/03/11 01:46:19;;;;;;;15.98;6.97;;;;;;;5.31;47.89;101637.66;5055298;28;20483;-82
2022/03/11 01:48:45;;;;;;;15.90;6.70;;;;;;;5.27;48.21;101633.28;5055197;28;20115;-83
2022/03/11 01:51:10;;;;;;;16.27;7.17;;;;;;;5.21;48.25;101620.28;5054731;28;20035;-83
2022/03/11 01:53:35;;;;;;;17.98;7.47;;;;;;;5.22;48.50;101617.78;5054897;28;20043;-83
2022/03/11 01:56:01;;;;;;;16.52;7.45;;;;;;;5.20;48.11;101614.28;5055171;28;20041;-83
2022/03/11 01:58:27;;;;;;;15.17;6.63;;;;;;;5.20;48.34;101613.41;5054401;28;20429;-83
2022/03/11 02:00:55;;;;;;;16.10;7.05;;;;;;;5.17;47.88;101606.50;5055023;28;20025;-83
2022/03/11 02:03:21;;;;;;;15.50;6.50;;;;;;;5.16;48.73;101602.19;5054575;28;20055;-83
2022/03/11 02:05:46;;;;;;;15.30;6.57;;;;;;;5.15;48.46;101603.03;5054427;28;20025;-83
2022/03/11 02:08:11;;;;;;;14.10;6.30;;;;;;;5.15;48.41;101597.03;5055059;28;20095;-83
2022/03/11 02:10:36;;;;;;;15.35;6.45;;;;;;;5.13;47.96;101596.13;5054322;28;20033;-83
2022/03/11 02:13:06;;;;;;;16.30;7.00;;;;;;;5.13;48.27;101594.41;5054266;28;20399;-83
2022/03/11 02:15:34;;;;;;;15.63;6.50;;;;;;;5.12;48.48;101587.56;5054582;28;20032;-83
2022/03/11 02:18:00;;;;;;;17.08;6.97;;;;;;;5.08;48.45;101586.59;5054824;28;20021;-83
2022/03/11 02:20:25;;;;;;;16.30;7.10;;;;;;;5.05;48.08;101576.28;5053712;28;20036;-83
2022/03/11 02:22:52;;;;;;;16.85;7.15;;;;;;;5.13;47.73;101576.38;5054813;28;20063;-83
2022/03/11 02:25:18;;;;;;;16.58;7.05;;;;;;;5.08;48.69;101576.31;5054334;28;20029;-83
2022/03/11 02:27:46;;;;;;;15.87;6.63;;;;;;;5.07;48.30;101573.72;5053535;28;20029;-82
2022/03/11 02:30:15;;;;;;;12.90;5.68;;;;;;;5.04;48.24;101566.81;5052350;28;20617;-83
2022/03/11 02:32:41;;;;;;;14.40;6.18;;;;;;;5.03;48.73;101565.06;5049642;28;20048;-83
2022/03/11 02:35:07;;;;;;;16.27;6.70;;;;;;;5.03;48.02;101562.50;5053295;28;20493;-83
2022/03/11 02:37:32;;;;;;;12.73;5.70;;;;;;;5.04;48.03;101558.22;5054086;28;20104;-83
2022/03/11 02:39:58;;;;;;;13.38;5.82;;;;;;;5.02;48.26;101558.19;5054665;28;20280;-83
2022/03/11 02:42:23;;;;;;;12.13;5.72;;;;;;;4.99;48.35;101552.13;5053690;28;20021;-82
2022/03/11 02:44:48;;;;;;;13.10;5.82;;;;;;;4.96;48.76;101558.06;5054296;28;20159;-83
2022/03/11 02:47:14;;;;;;;12.38;5.47;;;;;;;4.93;49.04;101561.44;5053753;28;20032;-83
2022/03/11 02:49:39;;;;;;;14.70;6.15;;;;;;;4.94;48.14;101557.19;5053706;28;20039;-83
2022/03/11 02:52:05;;;;;;;16.90;6.75;;;;;;;4.91;48.40;101546.81;5054192;28;20028;-83
2022/03/11 02:54:30;;;;;;;14.68;6.35;;;;;;;4.93;48.70;101548.59;5052258;28;20048;-83
2022/03/11 02:56:56;;;;;;;13.13;5.65;;;;;;;4.89;48.52;101549.38;5052985;28;20424;-83
2022/03/11 02:59:21;;;;;;;12.77;5.50;;;;;;;4.87;48.37;101543.34;5053535;28;20029;-83
2022/03/11 03:01:46;;;;;;;13.40;5.93;;;;;;;4.85;48.89;101545.00;5053159;28;20033;-84
2022/03/11 03:04:12;;;;;;;14.38;6.00;;;;;;;4.82;48.57;101544.09;5054109;28;20017;-83
2022/03/11 03:06:37;;;;;;;13.70;5.80;;;;;;;4.78;48.73;101538.88;5054019;28;20051;-83
2022/03/11 03:09:03;;;;;;;13.27;5.47;;;;;;;4.78;48.57;101544.00;5053161;28;20085;-83
2022/03/11 03:11:28;;;;;;;16.33;6.82;;;;;;;4.79;48.81;101542.28;5053197;28;20036;-83
2022/03/11 03:13:53;;;;;;;15.73;7.10;;;;;;;4.76;48.20;101539.69;5053868;28;20037;-83
2022/03/11 03:16:18;;;;;;;16.63;7.20;;;;;;;4.74;48.58;101543.94;5052584;28;20029;-83
2022/03/11 03:18:44;;;;;;;14.98;6.63;;;;;;;4.75;48.93;101545.66;5053629;28;20032;-83
2022/03/11 03:21:09;;;;;;;15.73;6.72;;;;;;;4.72;48.92;101543.91;5053841;28;20186;-83
2022/03/11 03:23:35;;;;;;;13.73;6.13;;;;;;;4.72;48.15;101538.75;5052613;28;20048;-83
2022/03/11 03:26:01;;;;;;;15.02;6.72;;;;;;;4.70;48.87;101531.84;5053360;28;20033;-83
2022/03/11 03:28:26;;;;;;;14.73;6.45;;;;;;;4.69;48.96;101538.69;5053816;28;20114;-83
2022/03/11 03:30:52;;;;;;;16.77;7.22;;;;;;;4.69;48.52;101541.25;5052552;28;20069;-83
2022/03/11 03:33:17;;;;;;;15.88;6.72;;;;;;;4.66;48.34;101535.19;5052338;28;20049;-83
2022/03/11 03:35:51;;;;;;;16.20;6.85;;;;;;;4.63;48.23;101534.28;5053544;28;20036;-83
2022/03/11 03:38:17;;;;;;;15.55;6.32;;;;;;;4.58;49.22;101530.75;5052100;28;20461;-83
2022/03/11 03:40:42;;;;;;;17.50;6.88;;;;;;;4.58;48.97;101532.47;5053493;28;20116;-83
2022/03/11 03:43:07;;;;;;;16.73;6.60;;;;;;;4.60;49.10;101526.50;5053098;28;20385;-83
2022/03/11 03:45:32;;;;;;;16.33;6.90;;;;;;;4.57;49.18;101534.16;5052357;28;20025;-83
2022/03/11 03:48:00;;;;;;;18.52;8.07;;;;;;;4.56;49.05;101534.97;5053187;28;20025;-82
2022/03/11 03:50:26;;;;;;;15.65;6.97;;;;;;;4.53;49.27;101531.47;5052528;28;20100;-83
2022/03/11 03:52:51;;;;;;;16.45;7.25;;;;;;;4.54;48.38;101530.66;5052714;28;20116;-83
2022/03/11 03:55:16;;;;;;;15.77;6.38;;;;;;;4.48;49.07;101534.84;5052821;28;20382;-83
2022/03/11 03:57:41;;;;;;;18.88;7.55;;;;;;;4.53;48.93;101521.19;5051931;28;20075;-83
2022/03/11 04:00:08;;;;;;;16.88;7.20;;;;;;;4.46;49.14;101526.22;5053206;28;20464;-83
2022/03/11 04:02:34;;;;;;;16.42;6.78;;;;;;;4.43;49.67;101518.44;5063396;28;20470;-83
2022/03/11 04:04:59;;;;;;;15.63;6.40;;;;;;;4.38;49.54;101514.03;5052258;28;20038;-83
2022/03/11 04:07:24;;;;;;;15.18;6.50;;;;;;;4.37;49.07;101512.31;5058175;28;20052;-84
2022/03/11 04:09:52;;;;;;;15.18;6.25;;;;;;;4.29;49.59;101510.44;5068580;28;20029;-83
2022/03/11 04:12:18;;;;;;;13.38;5.80;;;;;;;4.29;49.42;101510.44;5052614;28;20097;-82
2022/03/11 04:14:46;;;;;;;13.43;6.05;;;;;;;4.30;49.48;101517.31;5053183;28;20104;-83
2022/03/11 04:17:11;;;;;;;15.50;5.78;;;;;;;4.29;49.34;101517.28;5052877;28;20021;-83
2022/03/11 04:19:36;;;;;;;13.82;5.95;;;;;;;4.30;49.50;101519.00;5052004;28;20032;-83
2022/03/11 04:22:02;;;;;;;16.02;6.70;;;;;;;4.35;49.19;101521.69;5053064;28;20491;-83
2022/03/11 04:24:27;;;;;;;15.32;6.35;;;;;;;4.28;48.79;101513.84;5052555;28;20155;-83
2022/03/11 04:26:52;;;;;;;15.80;6.47;;;;;;;4.30;48.82;101513.88;5052586;28;20080;-83
2022/03/11 04:29:18;;;;;;;15.77;6.45;;;;;;;4.35;49.18;101506.25;5052553;28;20391;-82
2022/03/11 04:31:44;;;;;;;15.07;6.80;;;;;;;4.32;49.31;101510.53;5051816;28;20033;-83
2022/03/11 04:34:09;;;;;;;15.57;6.28;;;;;;;4.30;49.37;101511.31;5051649;28;20239;-83
2022/03/11 04:36:38;;;;;;;14.52;6.05;;;;;;;4.24;49.81;101500.91;5052421;28;20437;-83
2022/03/11 04:39:05;;;;;;;16.73;7.00;;;;;;;4.24;49.73;101495.78;5052709;28;20079;-83
2022/03/11 04:41:32;;;;;;;17.40;6.97;;;;;;;4.22;49.70;101489.72;5051578;28;20594;-84
2022/03/11 04:43:57;;;;;;;16.92;6.72;;;;;;;4.29;49.31;101501.84;5052525;28;20033;-83
2022/03/11 04:46:23;;;;;;;16.08;6.65;;;;;;;4.23;49.93;101502.59;5052428;28;20052;-83
2022/03/11 04:48:49;;;;;;;15.93;6.63;;;;;;;4.22;49.64;101503.47;5051907;28;20025;-83
2022/03/11 04:51:15;;;;;;;16.98;7.10;;;;;;;4.24;49.32;101504.34;5052876;28;20025;-84
2022/03/11 04:53:40;;;;;;;16.42;6.93;;;;;;;4.20;49.82;101501.66;5051860;28;20131;-84
2022/03/11 04:56:06;;;;;;;16.25;6.70;;;;;;;4.23;48.94;101501.75;5051746;28;20021;-83
2022/03/11 04:58:31;;;;;;;16.27;6.78;;;;;;;4.24;48.82;101495.78;5051921;28;20112;-83
2022/03/11 05:00:56;;;;;;;16.95;7.00;;;;;;;4.24;49.25;101496.63;5051749;28;20041;-83
2022/03/11 05:03:21;;;;;;;14.18;6.53;;;;;;;4.25;49.31;101497.50;5052055;28;20484;-83
2022/03/11 05:05:46;;;;;;;15.73;6.60;;;;;;;4.25;49.03;101497.50;5052335;28;20033;-83
2022/03/11 05:08:12;;;;;;;15.35;6.30;;;;;;;4.18;49.92;101494.78;5051768;28;20021;-83
2022/03/11 05:10:37;;;;;;;14.80;6.18;;;;;;;4.21;49.62;101488.88;5051711;28;20538;-83
2022/03/11 05:13:02;;;;;;;17.38;6.80;;;;;;;4.17;49.64;101484.50;5052220;28;20033;-83
2022/03/11 05:15:27;;;;;;;15.93;6.80;;;;;;;4.18;49.89;101499.06;5051392;28;20028;-83
2022/03/11 05:17:53;;;;;;;16.67;6.60;;;;;;;4.24;49.54;101493.19;5052706;28;20431;-83
2022/03/11 05:20:18;;;;;;;15.90;6.63;;;;;;;4.21;49.50;101499.16;5055372;28;20108;-83
2022/03/11 05:22:44;;;;;;;15.68;6.60;;;;;;;4.18;49.92;101499.06;5055426;28;20031;-83
2022/03/11 05:25:10;;;;;;;17.55;6.45;;;;;;;4.21;49.19;101494.00;5056034;28;20028;-83
2022/03/11 05:27:39;;;;;;;16.77;7.43;;;;;;;4.29;49.28;101494.16;5055297;28;20473;-83
2022/03/11 05:30:06;;;;;;;16.08;7.13;;;;;;;4.20;49.84;101488.81;5055474;28;20500;-83
2022/03/11 05:32:31;;;;;;;17.00;6.88;;;;;;;4.20;49.47;101486.25;5055533;28;20033;-83
2022/03/11 05:34:59;;;;;;;16.52;6.82;;;;;;;4.20;49.35;101479.44;5055745;28;20049;-84
2022/03/11 05:37:24;;;;;;;18.98;7.95;;;;;;;4.18;49.94;101470.81;5054735;28;20019;-83
2022/03/11 05:39:50;;;;;;;18.10;7.38;;;;;;;4.24;49.83;101470.94;5055736;28;20036;-83
2022/03/11 05:42:17;;;;;;;19.00;7.57;;;;;;;4.23;50.24;101481.19;5055756;28;20055;-82
2022/03/11 05:44:43;;;;;;;17.92;6.80;;;;;;;4.29;49.76;101477.03;5054752;28;20032;-84
2022/03/11 05:47:09;;;;;;;18.23;7.15;;;;;;;4.31;49.46;101479.63;5055674;28;20021;-83
2022/03/11 05:49:34;;;;;;;16.27;6.82;;;;;;;4.24;50.92;101478.63;5055570;28;20103;-83
2022/03/11 05:52:00;;;;;;;17.05;7.30;;;;;;;4.28;50.19;101477.88;5054526;28;20124;-83
2022/03/11 05:54:25;;;;;;;19.63;7.80;;;;;;;4.41;49.72;101483.28;5055196;28;20033;-83
2022/03/11 05:56:54;;;;;;;17.20;7.18;;;;;;;4.26;49.98;101476.97;5054829;28;20060;-82
2022/03/11 05:59:20;;;;;;;18.25;7.63;;;;;;;4.32;50.09;101478.81;5054444;28;20491;-82
2022/03/11 06:01:46;;;;;;;16.53;7.00;;;;;;;4.27;49.94;101478.72;5055224;28;20035;-83
2022/03/11 06:04:11;;;;;;;17.08;7.25;;;;;;;4.29;50.59;101476.16;5054192;28;20038;-83
2022/03/11 06:06:37;;;;;;;18.10;7.78;;;;;;;4.32;49.99;101471.09;5061469;22;20064;-83
2022/03/11 06:09:03;;;;;;;16.55;7.30;;;;;;;4.31;50.50;101470.25;5055047;28;20017;-83
2022/03/11 06:11:30;;;;;;;17.67;7.00;;;;;;;4.27;50.96;101468.44;5054163;28;20083;-83
2022/03/11 06:13:56;;;;;;;17.42;7.47;;;;;;;4.35;50.11;101481.44;5054826;28;20040;-84
2022/03/11 06:16:21;;;;;;;17.55;8.02;;;;;;;4.27;50.95;101467.59;5054426;28;20412;-83
2022/03/11 06:18:46;;;;;;;18.83;7.60;;;;;;;4.35;50.09;101475.41;5054149;28;20017;-83
2022/03/11 06:21:11;;;;;;;17.70;7.95;;;;;;;4.36;50.46;101477.16;5038418;28;20418;-84
2022/03/11 06:23:37;;;;;;;19.00;7.38;;;;;;;4.46;50.21;101477.41;5034113;28;20029;-83
2022/03/11 06:26:03;;;;;;;17.95;7.95;;;;;;;4.35;51.41;101476.31;5034125;28;20032;-84
2022/03/11 06:28:29;;;;;;;19.20;7.80;;;;;;;4.39;51.21;101478.09;5034569;28;20108;-83
2022/03/11 06:30:54;;;;;;;18.70;8.10;;;;;;;4.35;51.22;101485.69;5033550;28;20049;-83
2022/03/11 06:33:23;;;;;;;17.55;7.78;;;;;;;4.39;50.90;101484.94;5033657;28;20037;-83
2022/03/11 06:35:49;;;;;;;19.00;7.63;;;;;;;4.35;52.00;101485.69;5034915;28;20462;-83
2022/03/11 06:38:14;;;;;;;19.38;7.65;;;;;;;4.35;51.51;101478.88;5034496;28;20026;-84
2022/03/11 06:40:39;;;;;;;18.75;8.02;;;;;;;4.55;50.49;101473.25;5033500;28;20100;-84
2022/03/11 06:43:05;;;;;;;19.50;8.05;;;;;;;4.52;51.26;101471.50;5034611;28;20032;-84
2022/03/11 06:45:30;;;;;;;18.70;7.35;;;;;;;4.73;51.49;101483.91;5046616;28;20039;-84
2022/03/11 06:47:55;;;;;;;20.92;8.10;;;;;;;5.28;50.13;101484.88;5053736;28;20049;-84
2022/03/11 06:50:21;;;;;;;19.25;8.00;;;;;;;6.00;48.34;101478.28;5052385;28;20028;-84
2022/03/11 06:52:46;;;;;;;18.70;7.70;;;;;;;6.67;46.63;101473.97;5051437;28;20370;-82
2022/03/11 06:55:12;;;;;;;17.95;7.65;;;;;;;7.30;45.14;101472.84;5053166;28;20037;-82
2022/03/11 06:57:37;;;;;;;18.52;8.15;;;;;;;7.73;44.84;101476.59;5054127;28;20040;-82
2022/03/11 07:00:04;;;;;;;17.75;7.93;;;;;;;8.02;43.90;101463.00;5054081;28;20040;-86
2022/03/11 07:02:30;;;;;;;19.35;7.88;;;;;;;8.08;43.38;101461.28;5034840;28;20044;-84
2022/03/11 07:04:55;;;;;;;17.05;7.70;;;;;;;8.48;43.66;101470.13;5034504;28;20022;-83
2022/03/11 07:07:21;;;;;;;19.08;8.20;;;;;;;9.10;42.13;101461.59;5033091;28;20053;-84
2022/03/11 07:09:46;;;;;;;17.63;7.87;;;;;;;9.90;41.18;101465.88;5033390;28;20022;-83
2022/03/11 07:12:11;;;;;;;16.73;7.60;;;;;;;9.95;40.15;101451.16;5034202;28;20018;-82
2022/03/11 07:14:36;;;;;;;19.77;8.27;;;;;;;9.34;41.61;101459.91;5032846;28;20469;-83
2022/03/11 07:17:03;;;;;;;16.88;7.47;;;;;;;8.67;42.95;101446.88;5033539;28;20047;-83
2022/03/11 07:19:28;;;;;;;19.02;8.48;;;;;;;8.11;44.06;101458.72;5034914;28;20033;-83
2022/03/11 07:21:55;;;;;;;18.50;8.50;;;;;;;7.44;45.25;101458.31;5033455;28;20022;-83
2022/03/11 07:24:20;;;;;;;17.08;7.70;;;;;;;6.94;45.76;101454.44;5033908;28;20029;-83
2022/03/11 07:26:45;;;;;;;18.23;8.18;;;;;;;6.83;46.56;101463.78;5033510;28;20027;-83
2022/03/11 07:29:11;;;;;;;20.33;9.00;;;;;;;6.48;46.79;101455.69;5033054;28;20025;-82
2022/03/11 07:31:39;;;;;;;20.97;8.70;;;;;;;6.36;47.61;101462.41;5033971;28;20044;-83
2022/03/11 07:34:04;;;;;;;20.13;9.02;;;;;;;6.16;48.60;101465.63;5033931;28;20033;-82
2022/03/11 07:36:30;;;;;;;20.33;8.65;;;;;;;6.17;47.93;101465.63;5032295;28;20474;-83
2022/03/11 07:38:56;;;;;;;21.07;9.13;;;;;;;6.06;48.22;101458.63;5033590;28;20017;-84
2022/03/11 07:41:22;;;;;;;18.40;8.20;;;;;;;6.01;48.77;101464.56;5033198;28;20036;-84
2022/03/11 07:43:48;;;;;;;19.13;8.77;;;;;;;6.12;48.44;101450.94;5034816;28;20025;-83
2022/03/11 07:46:14;;;;;;;18.13;8.53;;;;;;;6.10;49.10;101458.66;5033114;28;20462;-82
2022/03/11 07:48:43;;;;;;;20.45;8.88;;;;;;;6.08;49.22;101464.66;5032154;28;20053;-82
2022/03/11 07:51:09;;;;;;;19.27;8.52;;;;;;;6.16;48.58;101460.47;5029601;28;20112;-82
2022/03/11 07:53:35;;;;;;;20.38;8.88;;;;;;;6.15;49.05;101456.16;5032751;28;20172;-82
2022/03/11 07:56:00;;;;;;;20.98;9.35;;;;;;;6.28;48.69;101458.03;5032838;28;20473;-83
2022/03/11 07:58:28;;;;;;;20.40;8.82;;;;;;;6.30;48.64;101446.03;5032040;28;20107;-83
2022/03/11 08:00:56;;;;;;;19.48;9.32;;;;;;;6.33;48.38;101447.78;5033323;28;20399;-83
2022/03/11 08:03:22;;;;;;;19.38;9.45;;;;;;;6.42;48.54;101444.44;5033051;28;20412;-83
2022/03/11 08:05:47;;;;;;;20.37;9.47;;;;;;;6.48;48.46;101447.09;5032357;28;20032;-82
2022/03/11 08:08:12;;;;;;;20.47;9.40;;;;;;;6.47;49.37;101435.03;5034001;28;20091;-83
2022/03/11 08:10:39;;;;;;;20.57;9.47;;;;;;;6.54;48.28;101435.97;5037130;28;20515;-82
2022/03/11 08:13:06;;;;;;;21.23;9.47;;;;;;;6.70;47.98;101437.00;5097480;22;20052;-83
2022/03/11 08:15:32;;;;;;;20.55;9.13;;;;;;;6.65;47.91;101440.38;5072734;28;20337;-83
2022/03/11 08:17:57;;;;;;;20.30;10.20;;;;;;;6.69;48.21;101440.44;5072204;28;20066;-83
2022/03/11 08:20:22;;;;;;;20.00;9.60;;;;;;;6.81;48.02;101432.81;5072469;28;20107;-87
2022/03/11 08:22:50;;;;;;;20.90;10.20;;;;;;;6.97;47.77;101444.16;5072910;28;20035;-85
2022/03/11 08:25:15;;;;;;;22.30;9.48;;;;;;;6.91;48.21;101423.47;5072319;28;20031;-83
2022/03/11 08:27:42;;;;;;;20.80;10.03;;;;;;;7.02;48.12;101423.53;5072574;28;20024;-83
2022/03/11 08:30:09;;;;;;;20.77;9.55;;;;;;;7.07;47.96;101427.03;5072871;28;20059;-83
2022/03/11 08:32:35;;;;;;;20.40;10.00;;;;;;;7.13;48.20;101429.66;5071389;28;20104;-83
2022/03/11 08:35:07;;;;;;;20.20;9.93;;;;;;;7.29;47.64;101430.66;5070769;28;20035;-84
2022/03/11 08:37:33;;;;;;;20.60;9.93;;;;;;;7.34;47.63;101422.94;5052750;28;20025;-86
2022/03/11 08:39:59;;;;;;;20.93;9.83;;;;;;;7.41;47.28;101411.81;5066860;28;20033;-82
2022/03/11 08:42:24;;;;;;;22.00;10.37;;;;;;;7.51;46.98;101417.88;5072138;28;20029;-83
2022/03/11 08:44:49;;;;;;;21.20;10.60;;;;;;;7.59;47.51;101418.81;5072817;28;20027;-85
2022/03/11 08:47:15;;;;;;;20.13;10.40;;;;;;;7.62;47.54;101416.22;5071929;28;20036;-84
2022/03/11 08:49:40;;;;;;;21.03;10.00;;;;;;;7.70;47.45;101416.28;5071742;28;20032;-84
2022/03/11 08:52:06;;;;;;;20.70;10.23;;;;;;;7.86;46.91;101420.69;5072649;28;20058;-85
2022/03/11 08:54:31;;;;;;;22.27;10.85;;;;;;;7.85;47.25;101416.38;5074629;28;20029;-85
2022/03/11 08:56:59;;;;;;;21.63;10.20;;;;;;;7.93;46.89;101412.97;5076489;28;20082;-84
2022/03/11 08:59:24;;;;;;;20.55;9.75;;;;;;;7.99;47.07;101416.44;5076246;28;20025;-84
2022/03/11 09:01:49;;;;;;;20.77;10.20;;;;;;;8.14;46.95;101417.38;5067670;28;20143;-83
2022/03/11 09:04:15;;;;;;;21.75;10.40;;;;;;;8.33;46.56;101418.31;5056681;28;20029;-85
2022/03/11 09:06:40;;;;;;;21.10;10.13;;;;;;;8.30;46.93;101407.94;5056285;28;20442;-83
2022/03/11 09:09:05;;;;;;;20.67;10.30;;;;;;;8.58;46.29;101415.81;5063222;28;20056;-83
2022/03/11 09:11:32;;;;;;;20.93;10.53;;;;;;;8.52;46.45;101415.81;5077789;28;20019;-83
2022/03/11 09:14:00;;;;;;;20.42;10.30;;;;;;;8.63;46.56;101408.94;5096685;28;20046;-83
2022/03/11 09:16:26;;;;;;;21.52;10.07;;;;;;;8.71;45.70;101404.63;5095634;28;20468;-83
2022/03/11 09:18:51;;;;;;;20.13;10.27;;;;;;;8.81;46.38;101413.28;5096504;28;20020;-83
2022/03/11 09:21:16;;;;;;;20.07;10.50;;;;;;;9.04;45.44;101408.09;5095520;28;20028;-83
2022/03/11 09:23:42;;;;;;;21.63;10.83;;;;;;;8.96;46.04;101396.88;5096326;28;20023;-83
2022/03/11 09:26:07;;;;;;;21.33;10.57;;;;;;;9.10;45.51;101390.00;5096127;28;20024;-84
2022/03/11 09:28:33;;;;;;;21.87;10.47;;;;;;;9.17;45.43;101385.66;5095239;28;20031;-84
2022/03/11 09:30:58;;;;;;;20.17;10.60;;;;;;;9.43;45.34;101387.34;5096449;28;20073;-83
2022/03/11 09:33:24;;;;;;;20.10;10.17;;;;;;;9.39;45.49;101380.47;5096079;28;20024;-83
2022/03/11 09:35:49;;;;;;;20.50;10.63;;;;;;;9.52;46.00;101386.47;5094308;28;20035;-83
2022/03/11 09:38:14;;;;;;;22.53;10.80;;;;;;;9.71;44.78;101382.09;5095708;28;20012;-83
2022/03/11 09:40:44;;;;;;;21.27;10.73;;;;;;;9.74;45.12;101371.72;5115994;28;20031;-83
2022/03/11 09:43:11;;;;;;;20.45;10.40;;;;;;;9.85;45.10;101388.09;5112793;28;20027;-84
2022/03/11 09:45:37;;;;;;;19.88;9.80;;;;;;;9.94;44.78;101374.22;5090933;28;20031;-84
2022/03/11 09:48:03;;;;;;;19.93;10.00;;;;;;;10.02;44.54;101372.47;5110360;28;20020;-83
2022/03/11 09:50:29;;;;;;;20.37;10.03;;;;;;;10.15;44.51;101365.50;5102099;28;20024;-83
2022/03/11 09:52:55;;;;;;;20.63;10.10;;;;;;;10.30;44.47;101353.31;5093151;28;20028;-84
2022/03/11 09:55:20;;;;;;;20.53;10.40;;;;;;;10.39;43.99;101350.69;5100792;28;20020;-86
2022/03/11 09:57:49;;;;;;;21.00;9.87;;;;;;;10.61;44.27;101345.38;5115691;28;20531;-82
2022/03/11 10:00:17;;;;;;;19.83;10.05;;;;;;;10.56;44.57;101348.00;5116034;28;20382;-90
2022/03/11 10:02:44;;;;;;;21.52;10.63;;;;;;;10.74;43.95;101334.03;5115595;28;20388;-84
2022/03/11 10:05:09;;;;;;;21.60;10.50;;;;;;;10.88;44.32;101338.22;5094508;28;20492;-82
2022/03/11 10:07:34;;;;;;;22.57;11.20;;;;;;;11.00;43.55;101345.03;5114204;28;20055;-82
2022/03/11 10:10:16;;;;;;;20.23;10.30;;;;;;;11.05;43.93;101336.34;5116197;28;20053;-89
2022/03/11 10:12:44;;;;;;;20.95;9.98;;;;;;;11.13;43.58;101336.28;5084039;28;20088;-80
2022/03/11 10:15:10;;;;;;;21.05;10.88;;;;;;;11.24;43.58;101329.22;5075000;28;20024;-83
2022/03/11 10:17:41;;;;;;;20.92;10.93;;;;;;;11.39;43.29;101327.31;5073490;28;20148;-81
2022/03/11 10:20:10;;;;;;;21.50;10.68;;;;;;;11.46;43.26;101318.59;5075701;28;20490;-84
2022/03/11 10:22:37;;;;;;;21.05;10.57;;;;;;;11.46;43.28;101313.41;5074804;28;20113;-82
2022/03/11 10:25:09;;;;;;;19.05;9.15;;;;;;;11.53;43.79;101322.84;5074025;28;20024;-83
2022/03/11 10:27:53;;;;;;;19.73;9.73;;;;;;;11.69;42.97;101322.66;5074695;28;20055;-80
2022/03/11 10:30:18;;;;;;;19.48;10.13;;;;;;;11.83;42.98;101320.72;5074219;28;20081;-82
2022/03/11 10:32:54;;;;;;;20.40;9.83;;;;;;;11.90;43.64;101313.72;5077361;28;20032;-81
2022/03/11 10:35:36;;;;;;;19.57;10.13;;;;;;;12.10;42.28;101303.06;5094491;28;20073;-81
2022/03/11 10:38:11;;;;;;;19.30;9.57;;;;;;;12.25;43.12;101317.59;5094659;28;20564;-86
2022/03/11 10:40:41;;;;;;;20.23;9.98;;;;;;;12.32;43.49;101313.16;5074491;28;20482;-83
2022/03/11 10:43:17;;;;;;;19.67;9.82;;;;;;;12.50;42.77;101305.06;5074333;28;20077;-83
2022/03/11 10:45:54;;;;;;;19.17;9.35;;;;;;;12.61;42.73;101304.06;5074496;28;20081;-82
2022/03/11 10:48:43;;;;;;;18.08;9.05;;;;;;;12.70;41.58;101298.69;5073767;28;20023;-84
2022/03/11 10:51:33;;;;;;;19.65;10.10;;;;;;;12.74;41.03;101300.34;5074435;28;20423;-83
2022/03/11 10:54:00;;;;;;;19.48;9.90;;;;;;;12.78;41.71;101291.59;5084298;28;20521;-84
2022/03/11 10:56:26;;;;;;;20.27;10.05;;;;;;;12.92;40.77;101280.09;5114506;28;20052;-84
2022/03/11 10:58:52;;;;;;;20.38;10.75;;;;;;;12.89;41.09;101290.56;5099962;28;20503;-83
2022/03/11 11:01:37;;;;;;;20.43;10.13;;;;;;;12.91;41.09;101281.81;5073005;28;20032;-83
2022/03/11 11:04:05;;;;;;;20.45;10.82;;;;;;;12.92;41.14;101270.50;5073622;28;20036;-82
2022/03/11 11:06:30;;;;;;;20.58;10.80;;;;;;;12.91;40.91;101267.94;5073383;28;20408;-83
2022/03/11 11:08:56;;;;;;;21.60;10.97;;;;;;;13.04;40.43;101264.22;5073400;28;20021;-83
2022/03/11 11:11:24;;;;;;;19.47;10.60;;;;;;;13.06;41.22;101275.47;5073303;28;20095;-82
2022/03/11 11:13:49;;;;;;;21.08;10.77;;;;;;;13.17;41.05;101272.66;5072864;28;20056;-83
2022/03/11 11:16:16;;;;;;;20.13;10.57;;;;;;;13.23;40.53;101269.91;5072584;28;20478;-85
2022/03/11 11:18:44;;;;;;;20.25;10.23;;;;;;;13.32;41.63;101270.66;5073922;28;20020;-88